Time;durP1;ratioP1;P1;durP2;ratioP2;P2;SDS_P1;SDS_P2;PMS_P1;PMS_P2;Temp;Humidity;BMP_temperature;BMP_pressure;BME280_temperature;BME280_humidity;BME280_pressure;Samples;Min_cycle;Max_cycle;Signal;HPM_P1;HPM_P2
2022/07/13 00:02:14;;;;;;;0.50;0.50;;;15.20;97.80;;;;;;5015229;28;20566;-70
2022/07/13 00:04:39;;;;;;;0.50;0.47;;;15.20;98.20;;;;;;5015221;28;20180;-70
2022/07/13 00:07:05;;;;;;;0.93;0.67;;;15.20;97.90;;;;;;5015117;28;20184;-70
2022/07/13 00:09:31;;;;;;;0.50;0.50;;;15.20;98.20;;;;;;5014987;28;20199;-69
2022/07/13 00:11:56;;;;;;;0.60;0.60;;;15.20;98.20;;;;;;5015148;28;20186;-69
2022/07/13 00:14:22;;;;;;;1.07;0.70;;;15.10;98.30;;;;;;5014885;28;20208;-69
2022/07/13 00:16:47;;;;;;;0.40;0.40;;;15.10;98.30;;;;;;5014918;28;20181;-69
2022/07/13 00:19:13;;;;;;;0.40;0.40;;;15.10;98.10;;;;;;5014595;28;20286;-70
2022/07/13 00:21:39;;;;;;;0.30;0.30;;;15.20;98.20;;;;;;5014972;28;20226;-70
2022/07/13 00:24:04;;;;;;;0.40;0.40;;;15.30;98.10;;;;;;5014839;28;20177;-69
2022/07/13 00:26:30;;;;;;;0.40;0.40;;;15.30;98.00;;;;;;5014166;28;20187;-70
2022/07/13 00:28:56;;;;;;;0.60;0.60;;;15.30;97.90;;;;;;5014314;28;20297;-70
2022/07/13 00:31:21;;;;;;;0.43;0.43;;;15.40;97.90;;;;;;5013318;28;20187;-69
2022/07/13 00:33:47;;;;;;;0.40;0.40;;;15.40;98.00;;;;;;5014431;28;20207;-69
2022/07/13 00:36:12;;;;;;;0.40;0.40;;;15.20;98.00;;;;;;5014589;28;20219;-69
2022/07/13 00:38:38;;;;;;;0.83;0.67;;;15.20;98.00;;;;;;5014392;28;20196;-70
2022/07/13 00:41:05;;;;;;;0.60;0.50;;;15.20;98.20;;;;;;5014494;28;20222;-70
2022/07/13 00:43:31;;;;;;;0.57;0.57;;;15.20;98.00;;;;;;5014451;28;20171;-69
2022/07/13 00:45:56;;;;;;;0.80;0.70;;;15.20;98.10;;;;;;5014411;28;20823;-70
2022/07/13 00:48:22;;;;;;;0.93;0.50;;;15.30;98.50;;;;;;5014228;28;20207;-70
2022/07/13 00:50:50;;;;;;;0.40;0.40;;;15.30;98.30;;;;;;5014373;28;20410;-70
2022/07/13 00:53:17;;;;;;;0.50;0.50;;;15.30;98.30;;;;;;5014466;28;20259;-70
2022/07/13 00:55:44;;;;;;;0.50;0.50;;;15.30;98.10;;;;;;5014356;28;20457;-69
2022/07/13 00:58:10;;;;;;;0.53;0.40;;;15.30;97.90;;;;;;5014009;28;20427;-70
2022/07/13 01:00:38;;;;;;;0.60;0.60;;;15.40;98.10;;;;;;5014250;28;20418;-69
2022/07/13 01:03:04;;;;;;;0.50;0.50;;;15.30;97.90;;;;;;5014356;28;20167;-70
2022/07/13 01:05:30;;;;;;;0.40;0.40;;;15.40;97.90;;;;;;5014212;28;20779;-69
2022/07/13 01:07:56;;;;;;;0.40;0.40;;;15.40;97.80;;;;;;5013838;28;20197;-69
2022/07/13 01:10:22;;;;;;;0.60;0.60;;;15.40;97.90;;;;;;5013923;28;20426;-69
2022/07/13 01:12:48;;;;;;;0.53;0.53;;;15.40;97.90;;;;;;5013991;28;20421;-70
2022/07/13 01:15:15;;;;;;;0.53;0.50;;;15.30;98.10;;;;;;5013952;28;20544;-70
2022/07/13 01:17:41;;;;;;;0.40;0.40;;;15.20;98.20;;;;;;5013714;28;20496;-69
2022/07/13 01:20:08;;;;;;;0.50;0.50;;;15.20;98.40;;;;;;5014015;28;20402;-70
2022/07/13 01:22:40;;;;;;;0.40;0.40;;;15.10;98.40;;;;;;5014091;28;20887;-70
2022/07/13 01:25:07;;;;;;;0.40;0.40;;;15.10;98.50;;;;;;5013953;28;20998;-69
2022/07/13 01:27:35;;;;;;;0.40;0.40;;;15.10;98.70;;;;;;5013831;28;20951;-69
2022/07/13 01:30:01;;;;;;;0.50;0.50;;;15.20;98.40;;;;;;5013812;28;20420;-69
2022/07/13 01:32:27;;;;;;;0.30;0.30;;;15.30;98.40;;;;;;5013893;28;20419;-70
2022/07/13 01:34:52;;;;;;;0.40;0.40;;;15.40;98.70;;;;;;5013812;28;20446;-70
2022/07/13 01:37:18;;;;;;;0.40;0.40;;;15.30;98.40;;;;;;5013725;28;20168;-69
2022/07/13 01:39:44;;;;;;;0.30;0.30;;;15.30;98.40;;;;;;5019818;28;20324;-70
2022/07/13 01:42:10;;;;;;;0.30;0.30;;;15.30;98.10;;;;;;5018951;28;20422;-69
2022/07/13 01:44:36;;;;;;;0.57;0.57;;;15.30;98.20;;;;;;5020149;28;20747;-69
2022/07/13 01:47:08;;;;;;;0.87;0.87;;;15.20;98.10;;;;;;5020094;28;20174;-69
2022/07/13 01:49:34;;;;;;;0.30;0.30;;;15.20;98.20;;;;;;5020232;28;20202;-70
2022/07/13 01:52:00;;;;;;;0.43;0.43;;;15.10;98.50;;;;;;5020231;28;20885;-70
2022/07/13 01:54:26;;;;;;;0.40;0.40;;;15.10;98.40;;;;;;5020044;28;20512;-69
2022/07/13 01:56:52;;;;;;;0.50;0.50;;;15.00;98.50;;;;;;5018857;28;20179;-70
2022/07/13 01:59:18;;;;;;;0.40;0.40;;;15.00;98.80;;;;;;5020011;28;20426;-70
2022/07/13 02:01:44;;;;;;;0.40;0.40;;;15.00;98.90;;;;;;5020217;28;20602;-69
2022/07/13 02:04:10;;;;;;;0.83;0.83;;;14.90;98.90;;;;;;5020182;28;20442;-70
2022/07/13 02:06:36;;;;;;;0.40;0.40;;;14.90;99.20;;;;;;5020183;28;20175;-70
2022/07/13 02:09:02;;;;;;;0.40;0.40;;;14.90;99.30;;;;;;5019752;28;20434;-69
2022/07/13 02:11:28;;;;;;;0.40;0.40;;;14.80;99.30;;;;;;5020193;28;20767;-70
2022/07/13 02:13:54;;;;;;;0.30;0.30;;;14.80;99.20;;;;;;5019935;28;20453;-69
2022/07/13 02:16:19;;;;;;;0.50;0.50;;;14.80;99.30;;;;;;5019990;28;20178;-70
2022/07/13 02:18:45;;;;;;;0.30;0.30;;;14.80;99.30;;;;;;5019852;28;20198;-69
2022/07/13 02:21:12;;;;;;;0.40;0.40;;;14.90;99.30;;;;;;5019829;28;20175;-70
2022/07/13 02:23:39;;;;;;;0.67;0.67;;;15.00;98.80;;;;;;5020056;28;20174;-70
2022/07/13 02:26:04;;;;;;;0.30;0.30;;;15.10;98.90;;;;;;5019722;28;20527;-69
2022/07/13 02:28:30;;;;;;;0.30;0.30;;;15.00;98.70;;;;;;5019700;28;20450;-69
2022/07/13 02:30:56;;;;;;;0.40;0.40;;;15.00;98.50;;;;;;5019942;28;20182;-69
2022/07/13 02:33:21;;;;;;;0.47;0.47;;;15.10;98.80;;;;;;5019932;28;20206;-69
2022/07/13 02:35:47;;;;;;;0.43;0.40;;;15.10;98.90;;;;;;5019849;28;20265;-70
2022/07/13 02:38:13;;;;;;;0.30;0.30;;;15.10;98.80;;;;;;5019532;28;20316;-70
2022/07/13 02:40:38;;;;;;;0.30;0.30;;;15.00;98.80;;;;;;5018487;28;20644;-70
2022/07/13 02:43:04;;;;;;;0.40;0.40;;;14.90;98.90;;;;;;5019779;28;20182;-69
2022/07/13 02:45:29;;;;;;;0.50;0.40;;;14.90;98.80;;;;;;5019894;28;20652;-70
2022/07/13 02:47:55;;;;;;;0.40;0.40;;;14.90;99.10;;;;;;5018255;28;20197;-70
2022/07/13 02:50:21;;;;;;;0.60;0.60;;;14.80;99.10;;;;;;5016689;28;20200;-69
2022/07/13 02:52:46;;;;;;;0.90;0.60;;;14.70;99.20;;;;;;5015207;28;20186;-70
2022/07/13 02:55:12;;;;;;;0.40;0.40;;;14.70;99.40;;;;;;5016439;28;20234;-70
2022/07/13 02:57:38;;;;;;;0.30;0.30;;;14.70;99.70;;;;;;5016203;28;20171;-70
2022/07/13 03:00:06;;;;;;;0.40;0.40;;;14.60;99.60;;;;;;5016323;28;20181;-70
2022/07/13 03:02:31;;;;;;;0.40;0.40;;;14.70;99.70;;;;;;5016307;28;20972;-70
2022/07/13 03:04:57;;;;;;;0.60;0.60;;;14.60;99.90;;;;;;5016271;28;20407;-70
2022/07/13 03:07:23;;;;;;;0.30;0.30;;;14.50;99.80;;;;;;5015951;28;20181;-69
2022/07/13 03:09:48;;;;;;;0.40;0.40;;;14.60;99.90;;;;;;5015925;28;20278;-69
2022/07/13 03:12:14;;;;;;;0.30;0.30;;;14.50;99.90;;;;;;5016151;28;20516;-70
2022/07/13 03:14:40;;;;;;;1.03;0.50;;;14.50;99.90;;;;;;5016078;28;20195;-70
2022/07/13 03:17:05;;;;;;;0.60;0.60;;;14.40;99.90;;;;;;5016145;28;20225;-69
2022/07/13 03:19:31;;;;;;;0.43;0.43;;;14.40;99.90;;;;;;5014877;28;20192;-69
2022/07/13 03:21:57;;;;;;;0.70;0.70;;;14.40;99.90;;;;;;5016190;28;20172;-70
2022/07/13 03:24:22;;;;;;;0.40;0.40;;;14.40;99.90;;;;;;5015763;28;20194;-71
2022/07/13 03:26:48;;;;;;;0.40;0.40;;;14.40;99.90;;;;;;5014757;28;20177;-70
2022/07/13 03:29:13;;;;;;;0.43;0.43;;;14.40;99.90;;;;;;5014310;28;20585;-69
2022/07/13 03:31:39;;;;;;;0.90;0.40;;;14.50;99.90;;;;;;5015956;28;20176;-70
2022/07/13 03:34:05;;;;;;;0.50;0.50;;;14.50;99.80;;;;;;5014548;28;20199;-70
2022/07/13 03:36:30;;;;;;;0.30;0.30;;;14.50;99.70;;;;;;5016123;28;20576;-70
2022/07/13 03:38:56;;;;;;;0.43;0.43;;;14.50;99.60;;;;;;5015452;28;20194;-69
2022/07/13 03:41:22;;;;;;;0.30;0.30;;;14.50;99.80;;;;;;5015849;28;20422;-70
2022/07/13 03:43:48;;;;;;;0.40;0.40;;;14.50;99.80;;;;;;5015556;28;20202;-70
2022/07/13 03:46:13;;;;;;;0.43;0.43;;;14.50;99.80;;;;;;5015451;28;20544;-70
2022/07/13 03:48:39;;;;;;;0.63;0.63;;;14.50;99.90;;;;;;5015241;28;20201;-70
2022/07/13 03:51:05;;;;;;;0.50;0.50;;;14.50;99.70;;;;;;5014194;28;20179;-70
2022/07/13 03:53:30;;;;;;;0.40;0.40;;;14.50;99.70;;;;;;5015352;28;20240;-69
2022/07/13 03:55:56;;;;;;;0.50;0.50;;;14.60;99.80;;;;;;5015402;28;20485;-70
2022/07/13 03:58:22;;;;;;;0.40;0.40;;;14.50;99.70;;;;;;5014984;28;20215;-69
2022/07/13 04:00:47;;;;;;;0.40;0.40;;;14.60;99.80;;;;;;5015029;28;20638;-69
2022/07/13 04:03:13;;;;;;;0.33;0.33;;;14.60;99.90;;;;;;5014084;28;20575;-70
2022/07/13 04:05:38;;;;;;;0.30;0.30;;;14.60;99.90;;;;;;5015371;28;20179;-70
2022/07/13 04:08:04;;;;;;;0.40;0.40;;;14.60;99.90;;;;;;5015057;28;20194;-70
2022/07/13 04:10:30;;;;;;;0.40;0.40;;;14.60;99.90;;;;;;5015000;28;20225;-68
2022/07/13 04:12:57;;;;;;;0.40;0.40;;;14.80;99.90;;;;;;5015254;28;20265;-68
2022/07/13 04:15:22;;;;;;;0.50;0.40;;;15.20;99.90;;;;;;5015090;28;20280;-68
2022/07/13 04:17:48;;;;;;;0.50;0.50;;;15.70;99.90;;;;;;5014865;28;20987;-68
2022/07/13 04:20:13;;;;;;;0.87;0.87;;;16.30;99.90;;;;;;5014912;28;20209;-67
2022/07/13 04:22:39;;;;;;;0.70;0.70;;;16.80;99.10;;;;;;5014837;28;20518;-68
2022/07/13 04:25:05;;;;;;;0.53;0.53;;;17.20;98.00;;;;;;5014592;28;20187;-69
2022/07/13 04:27:31;;;;;;;0.40;0.40;;;17.50;97.00;;;;;;5013321;28;20183;-71
2022/07/13 04:29:57;;;;;;;0.40;0.40;;;17.70;93.90;;;;;;5015267;28;20423;-72
2022/07/13 04:32:22;;;;;;;0.30;0.30;;;17.60;93.60;;;;;;5015120;28;20163;-69
2022/07/13 04:34:49;;;;;;;0.63;0.63;;;17.20;93.80;;;;;;5013097;28;20198;-71
2022/07/13 04:37:14;;;;;;;0.30;0.30;;;16.80;94.60;;;;;;5014350;28;20541;-71
2022/07/13 04:39:40;;;;;;;0.47;0.47;;;16.50;95.30;;;;;;5014797;28;20441;-71
2022/07/13 04:42:06;;;;;;;0.70;0.70;;;16.60;96.00;;;;;;5013135;28;20655;-71
2022/07/13 04:44:31;;;;;;;0.40;0.40;;;17.10;95.80;;;;;;5014538;28;20558;-71
2022/07/13 04:46:57;;;;;;;0.40;0.40;;;17.80;95.20;;;;;;5014751;28;20178;-72
2022/07/13 04:49:23;;;;;;;0.40;0.40;;;18.30;93.80;;;;;;5014744;28;20242;-72
2022/07/13 04:51:50;;;;;;;0.37;0.37;;;18.60;93.20;;;;;;5014581;28;20167;-72
2022/07/13 04:54:16;;;;;;;0.63;0.63;;;18.60;92.00;;;;;;5014581;28;20195;-72
2022/07/13 04:56:42;;;;;;;0.40;0.40;;;18.50;92.10;;;;;;5011611;28;20407;-72
2022/07/13 04:59:08;;;;;;;0.50;0.50;;;18.40;92.10;;;;;;5014050;28;20498;-72
2022/07/13 05:01:33;;;;;;;1.40;0.60;;;18.40;93.00;;;;;;5014523;28;20595;-72
2022/07/13 05:04:00;;;;;;;0.50;0.50;;;18.50;92.40;;;;;;5014673;28;20514;-71
2022/07/13 05:06:25;;;;;;;0.50;0.50;;;19.20;92.00;;;;;;5012995;28;20209;-73
2022/07/13 05:08:51;;;;;;;0.97;0.97;;;19.80;91.60;;;;;;5014173;28;20917;-72
2022/07/13 05:11:17;;;;;;;0.40;0.40;;;20.30;90.20;;;;;;5014372;28;20632;-73
2022/07/13 05:13:43;;;;;;;0.57;0.57;;;20.80;88.50;;;;;;5012656;28;20267;-73
2022/07/13 05:16:08;;;;;;;1.27;0.60;;;21.50;86.40;;;;;;5014425;28;20490;-72
2022/07/13 05:18:34;;;;;;;0.40;0.40;;;21.80;85.10;;;;;;5013706;28;20222;-72
2022/07/13 05:21:01;;;;;;;0.60;0.50;;;21.90;84.00;;;;;;5014158;28;20176;-72
2022/07/13 05:23:26;;;;;;;0.50;0.50;;;21.80;84.10;;;;;;5014216;28;20172;-71
2022/07/13 05:25:52;;;;;;;0.47;0.47;;;21.60;85.40;;;;;;5012804;28;20509;-72
2022/07/13 05:28:18;;;;;;;0.30;0.30;;;21.30;86.60;;;;;;5011457;28;20195;-71
2022/07/13 05:30:43;;;;;;;0.50;0.50;;;21.00;84.30;;;;;;5012796;28;20186;-71
2022/07/13 05:33:09;;;;;;;0.40;0.40;;;20.80;85.90;;;;;;5013741;28;20182;-72
2022/07/13 05:35:34;;;;;;;0.30;0.30;;;20.80;85.80;;;;;;5013719;28;20210;-71
2022/07/13 05:38:00;;;;;;;0.47;0.47;;;20.80;88.10;;;;;;5012946;28;20270;-71
2022/07/13 05:40:26;;;;;;;0.40;0.40;;;20.60;87.30;;;;;;5013712;28;20249;-70
2022/07/13 05:42:52;;;;;;;0.40;0.40;;;20.60;88.60;;;;;;5013815;28;20168;-70
2022/07/13 05:45:19;;;;;;;0.50;0.50;;;20.60;85.70;;;;;;5013767;28;20637;-72
2022/07/13 05:47:47;;;;;;;0.37;0.37;;;20.80;86.20;;;;;;5013272;28;20901;-71
2022/07/13 05:50:13;;;;;;;0.30;0.30;;;21.10;84.60;;;;;;5013641;28;20426;-71
2022/07/13 05:52:40;;;;;;;0.37;0.37;;;21.40;83.50;;;;;;5013821;28;20472;-71
2022/07/13 05:55:06;;;;;;;0.40;0.40;;;22.00;86.70;;;;;;5013639;28;20482;-71
2022/07/13 05:57:32;;;;;;;0.50;0.50;;;22.70;83.90;;;;;;5013421;28;20381;-71
2022/07/13 05:59:57;;;;;;;0.50;0.50;;;23.40;78.30;;;;;;5013467;28;20469;-72
2022/07/13 06:02:23;;;;;;;0.40;0.40;;;23.60;75.10;;;;;;5013716;28;20212;-71
2022/07/13 06:04:49;;;;;;;0.40;0.40;;;23.80;77.60;;;;;;5013731;28;20527;-72
2022/07/13 06:07:15;;;;;;;0.40;0.40;;;23.60;75.90;;;;;;5013300;28;20397;-71
2022/07/13 06:09:40;;;;;;;0.40;0.40;;;23.30;75.50;;;;;;5013366;28;20219;-71
2022/07/13 06:12:07;;;;;;;0.30;0.30;;;23.10;78.60;;;;;;5013265;28;20186;-71
2022/07/13 06:14:32;;;;;;;0.40;0.40;;;22.80;75.30;;;;;;5013495;28;20201;-71
2022/07/13 06:16:58;;;;;;;0.50;0.40;;;22.70;74.80;;;;;;5013398;28;20403;-71
2022/07/13 06:19:24;;;;;;;0.40;0.40;;;23.00;76.10;;;;;;5011959;28;20492;-71
2022/07/13 06:21:49;;;;;;;0.37;0.37;;;23.60;74.40;;;;;;5012902;28;20177;-71
2022/07/13 06:24:15;;;;;;;0.37;0.37;;;24.80;73.80;;;;;;5012990;28;20179;-72
2022/07/13 06:26:41;;;;;;;0.40;0.40;;;26.70;68.10;;;;;;5013028;28;20175;-71
2022/07/13 06:29:06;;;;;;;0.40;0.40;;;28.10;59.70;;;;;;5014532;28;20280;-71
2022/07/13 06:31:33;;;;;;;0.40;0.30;;;29.40;54.50;;;;;;5015758;28;20175;-71
2022/07/13 06:33:58;;;;;;;0.30;0.30;;;30.70;56.00;;;;;;5016181;28;20195;-71
2022/07/13 06:36:24;;;;;;;0.30;0.30;;;30.70;48.00;;;;;;5016609;28;20429;-72
2022/07/13 06:38:50;;;;;;;0.60;0.60;;;30.60;48.10;;;;;;5014533;28;20187;-71
2022/07/13 06:41:16;;;;;;;0.50;0.50;;;30.30;46.60;;;;;;5017427;28;20168;-70
2022/07/13 06:43:42;;;;;;;0.30;0.30;;;30.50;48.60;;;;;;5017089;28;20413;-72
2022/07/13 06:46:09;;;;;;;1.33;0.50;;;30.50;46.20;;;;;;5015292;28;20174;-73
2022/07/13 06:48:38;;;;;;;0.60;0.60;;;30.50;44.70;;;;;;5017048;28;20198;-73
2022/07/13 06:51:04;;;;;;;0.67;0.50;;;29.90;46.30;;;;;;5015586;28;20406;-72
2022/07/13 06:53:30;;;;;;;0.30;0.30;;;29.40;45.60;;;;;;5016454;28;20442;-72
2022/07/13 06:55:56;;;;;;;0.33;0.30;;;28.90;46.60;;;;;;5016600;28;20454;-70
2022/07/13 06:58:22;;;;;;;0.40;0.40;;;29.10;48.70;;;;;;5015146;28;20437;-72
2022/07/13 07:00:48;;;;;;;0.30;0.30;;;29.80;45.90;;;;;;5015654;28;20879;-72
2022/07/13 07:03:14;;;;;;;0.30;0.30;;;30.30;45.20;;;;;;5016263;28;20175;-72
2022/07/13 07:05:40;;;;;;;0.30;0.30;;;31.50;44.20;;;;;;5014894;28;20407;-73
2022/07/13 07:08:06;;;;;;;0.40;0.30;;;33.10;43.20;;;;;;5016234;28;20257;-72
2022/07/13 07:10:32;;;;;;;0.40;0.40;;;34.50;40.30;;;;;;5015781;28;20408;-73
2022/07/13 07:12:57;;;;;;;0.40;0.30;;;35.10;37.70;;;;;;5014844;28;20171;-72
2022/07/13 07:15:24;;;;;;;0.40;0.40;;;34.60;36.40;;;;;;5016223;28;20450;-72
2022/07/13 07:17:50;;;;;;;0.30;0.30;;;34.40;36.50;;;;;;5014185;28;20183;-72
2022/07/13 07:20:19;;;;;;;0.40;0.30;;;34.20;37.60;;;;;;5015616;28;20772;-71
2022/07/13 07:22:46;;;;;;;0.40;0.30;;;34.50;36.70;;;;;;5015237;28;20226;-73
2022/07/13 07:25:13;;;;;;;0.50;0.50;;;34.80;37.10;;;;;;5013325;28;20517;-72
2022/07/13 07:27:41;;;;;;;0.40;0.40;;;34.70;36.50;;;;;;5014303;28;20438;-72
2022/07/13 07:30:08;;;;;;;0.40;0.40;;;34.90;32.60;;;;;;5015585;28;20425;-72
2022/07/13 07:32:33;;;;;;;0.40;0.30;;;34.90;33.80;;;;;;5013288;28;20414;-71
2022/07/13 07:34:59;;;;;;;0.40;0.40;;;35.40;32.90;;;;;;5014082;28;20461;-72
2022/07/13 07:37:25;;;;;;;0.30;0.30;;;35.40;32.40;;;;;;5014527;28;20702;-72
2022/07/13 07:39:51;;;;;;;0.40;0.30;;;35.30;32.90;;;;;;5015242;28;20200;-72
2022/07/13 07:42:17;;;;;;;0.30;0.30;;;35.20;31.30;;;;;;5015399;28;20176;-73
2022/07/13 07:44:44;;;;;;;0.60;0.60;;;36.20;32.20;;;;;;5014753;28;20531;-73
2022/07/13 07:47:10;;;;;;;0.40;0.30;;;37.30;30.90;;;;;;5014497;28;20460;-72
2022/07/13 07:49:36;;;;;;;0.50;0.50;;;38.50;29.50;;;;;;5015127;28;20525;-73
2022/07/13 07:52:01;;;;;;;0.40;0.40;;;38.90;27.90;;;;;;5013672;28;20887;-72
2022/07/13 07:54:27;;;;;;;0.77;0.40;;;38.80;27.50;;;;;;5014401;28;20196;-72
2022/07/13 07:56:52;;;;;;;0.40;0.40;;;38.90;28.30;;;;;;5014241;28;20174;-72
2022/07/13 07:59:18;;;;;;;0.40;0.40;;;39.40;26.70;;;;;;5012613;28;20194;-71
2022/07/13 08:01:44;;;;;;;0.40;0.40;;;39.60;26.20;;;;;;5015079;28;20172;-71
2022/07/13 08:04:10;;;;;;;0.50;0.50;;;39.50;26.70;;;;;;5015209;28;20181;-71
2022/07/13 08:06:38;;;;;;;0.40;0.30;;;40.20;26.60;;;;;;5013900;28;20550;-71
2022/07/13 08:09:04;;;;;;;0.63;0.40;;;40.30;26.30;;;;;;5014038;28;21006;-70
2022/07/13 08:11:30;;;;;;;0.33;0.30;;;40.50;24.80;;;;;;5013149;28;20416;-71
2022/07/13 08:13:55;;;;;;;0.70;0.40;;;40.50;25.70;;;;;;5015119;28;20454;-71
2022/07/13 08:16:21;;;;;;;0.30;0.30;;;40.30;24.80;;;;;;5015480;28;20168;-70
2022/07/13 08:18:47;;;;;;;0.40;0.40;;;40.10;25.00;;;;;;5013305;28;20191;-71
2022/07/13 08:21:12;;;;;;;0.30;0.30;;;40.70;25.00;;;;;;5015476;28;20624;-72
2022/07/13 08:23:51;;;;;;;0.30;0.30;;;41.50;26.10;;;;;;5015475;28;20174;-71
2022/07/13 08:26:20;;;;;;;0.40;0.40;;;41.00;25.00;;;;;;5015249;28;20207;-72
2022/07/13 08:28:46;;;;;;;0.30;0.30;;;41.10;25.00;;;;;;5014869;28;20425;-71
2022/07/13 08:31:12;;;;;;;0.50;0.50;;;42.10;24.90;;;;;;5015052;28;20407;-71
2022/07/13 08:39:18;;;;;;;0.30;0.30;;;43.10;22.50;;;;;;5011787;28;20422;-71
2022/07/13 08:41:47;;;;;;;0.40;0.30;;;41.90;22.60;;;;;;5014459;28;20477;-69
2022/07/13 08:44:13;;;;;;;0.30;0.30;;;42.10;23.20;;;;;;5013946;28;20831;-70
2022/07/13 08:46:40;;;;;;;0.70;0.50;;;42.10;22.70;;;;;;5013574;28;20418;-70
2022/07/13 08:49:07;;;;;;;0.40;0.30;;;41.80;21.90;;;;;;5013426;28;20458;-70
2022/07/13 08:51:32;;;;;;;0.30;0.30;;;41.70;22.40;;;;;;5014261;28;20408;-70
2022/07/13 08:54:00;;;;;;;0.30;0.30;;;41.60;22.90;;;;;;5012892;28;21039;-70
2022/07/13 08:56:25;;;;;;;1.03;0.30;;;41.60;23.00;;;;;;5014821;28;20635;-71
2022/07/13 08:58:54;;;;;;;0.40;0.30;;;41.70;22.90;;;;;;5013513;28;20422;-70
2022/07/13 09:01:20;;;;;;;0.40;0.40;;;41.60;21.30;;;;;;5012612;28;20163;-70
2022/07/13 09:03:46;;;;;;;0.40;0.40;;;41.80;22.30;;;;;;5014379;28;20406;-70
2022/07/13 09:06:40;;;;;;;0.40;0.40;;;42.20;22.10;;;;;;5014319;28;20398;-71
2022/07/13 09:09:06;;;;;;;0.73;0.40;;;41.70;22.80;;;;;;5012519;28;20184;-71
2022/07/13 09:11:33;;;;;;;0.40;0.40;;;40.60;24.50;;;;;;5013854;28;20773;-70
2022/07/13 09:13:58;;;;;;;0.40;0.30;;;40.40;25.00;;;;;;5013455;28;20496;-70
2022/07/13 09:16:26;;;;;;;0.73;0.50;;;39.90;25.60;;;;;;5011966;28;20494;-70
2022/07/13 09:18:53;;;;;;;0.40;0.40;;;39.10;25.10;;;;;;5013532;28;20195;-70
2022/07/13 09:21:20;;;;;;;0.40;0.33;;;38.50;23.60;;;;;;5012758;28;20489;-72
2022/07/13 09:24:06;;;;;;;0.60;0.50;;;38.10;25.60;;;;;;5013382;28;20945;-70
2022/07/13 09:26:47;;;;;;;0.40;0.30;;;37.60;25.90;;;;;;5013696;28;20422;-71
2022/07/13 09:29:13;;;;;;;0.40;0.30;;;37.20;26.20;;;;;;5012507;28;20418;-71
2022/07/13 09:31:56;;;;;;;0.40;0.40;;;36.90;27.00;;;;;;5014209;28;20405;-70
2022/07/13 09:34:52;;;;;;;0.50;0.50;;;36.60;27.30;;;;;;5014332;28;20446;-70
2022/07/13 09:37:21;;;;;;;0.40;0.40;;;36.20;27.50;;;;;;5013848;28;20445;-70
2022/07/13 09:39:58;;;;;;;0.40;0.33;;;36.70;25.70;;;;;;5014037;28;20572;-70
2022/07/13 09:42:32;;;;;;;0.40;0.40;;;36.80;26.90;;;;;;5014259;28;20477;-70
2022/07/13 09:47:53;;;;;;;0.40;0.40;;;37.30;27.60;;;;;;5013425;28;20448;-71
2022/07/13 09:50:39;;;;;;;0.40;0.40;;;37.90;26.50;;;;;;5014109;28;20441;-71
2022/07/13 09:53:31;;;;;;;0.40;0.30;;;37.70;25.90;;;;;;5014334;28;20902;-71
2022/07/13 09:56:00;;;;;;;0.40;0.30;;;38.20;25.80;;;;;;5013775;28;20450;-70
2022/07/13 09:58:34;;;;;;;0.40;0.40;;;38.30;25.70;;;;;;5011864;28;20502;-70
2022/07/13 10:01:02;;;;;;;0.33;0.30;;;38.80;25.00;;;;;;5017173;28;20409;-71
2022/07/13 10:03:31;;;;;;;0.40;0.30;;;39.00;24.20;;;;;;5016727;28;20403;-71
2022/07/13 10:06:00;;;;;;;0.40;0.33;;;39.20;23.80;;;;;;5017116;28;20448;-71
2022/07/13 10:08:26;;;;;;;0.40;0.30;;;38.80;24.30;;;;;;5014794;28;20849;-71
2022/07/13 10:10:52;;;;;;;0.40;0.37;;;38.80;24.90;;;;;;5015774;28;20425;-71
2022/07/13 10:13:18;;;;;;;0.50;0.40;;;38.50;23.60;;;;;;5015357;28;20784;-71
2022/07/13 10:15:45;;;;;;;0.40;0.30;;;38.00;23.40;;;;;;5016229;28;20207;-71
2022/07/13 10:18:19;;;;;;;0.50;0.40;;;37.40;26.70;;;;;;5016196;28;20914;-71
2022/07/13 10:20:51;;;;;;;0.40;0.40;;;37.30;27.00;;;;;;5017437;28;20407;-70
2022/07/13 10:23:37;;;;;;;0.57;0.40;;;37.40;27.40;;;;;;5016931;28;20820;-70
2022/07/13 10:26:03;;;;;;;0.40;0.40;;;37.80;25.90;;;;;;5017188;28;20837;-71
2022/07/13 10:28:29;;;;;;;0.40;0.37;;;37.40;24.70;;;;;;5015522;28;20446;-71
2022/07/13 10:30:55;;;;;;;0.50;0.50;;;37.40;27.30;;;;;;5015633;28;20458;-71
2022/07/13 10:33:24;;;;;;;0.40;0.30;;;37.30;24.90;;;;;;5016941;28;20404;-71
2022/07/13 10:35:55;;;;;;;0.33;0.30;;;36.90;26.80;;;;;;5016906;28;20450;-71
2022/07/13 10:38:28;;;;;;;0.40;0.40;;;37.20;25.20;;;;;;5016926;28;20783;-70
2022/07/13 10:41:21;;;;;;;0.40;0.40;;;37.20;25.60;;;;;;5016901;28;20415;-70
2022/07/13 10:44:29;;;;;;;0.40;0.30;;;37.20;29.00;;;;;;5016981;28;20402;-70
2022/07/13 10:46:56;;;;;;;0.50;0.50;;;36.90;26.90;;;;;;5000305;28;20820;-70
2022/07/13 10:49:30;;;;;;;0.40;0.40;;;36.00;25.40;;;;;;5016557;28;20757;-70
2022/07/13 10:51:59;;;;;;;0.40;0.37;;;35.70;28.90;;;;;;5016613;28;20914;-70
2022/07/13 10:54:25;;;;;;;0.40;0.40;;;35.90;25.90;;;;;;5016561;28;20934;-71
2022/07/13 10:57:14;;;;;;;0.50;0.40;;;36.10;27.00;;;;;;5016559;28;20406;-71
2022/07/13 10:59:49;;;;;;;0.40;0.30;;;36.20;25.00;;;;;;5016417;28;20183;-70
2022/07/13 11:02:40;;;;;;;0.40;0.30;;;35.40;26.20;;;;;;5016347;28;20401;-70
2022/07/13 11:05:06;;;;;;;0.47;0.47;;;34.10;27.00;;;;;;5016420;28;20418;-70
2022/07/13 11:07:46;;;;;;;0.30;0.30;;;33.70;28.10;;;;;;5015997;28;20429;-70
2022/07/13 11:10:30;;;;;;;0.40;0.40;;;33.50;27.10;;;;;;5015914;28;20159;-70
2022/07/13 11:13:04;;;;;;;0.40;0.40;;;33.20;28.60;;;;;;5016282;28;20407;-70
2022/07/13 11:15:43;;;;;;;0.40;0.40;;;33.20;29.50;;;;;;5015688;28;20544;-70
2022/07/13 11:18:24;;;;;;;0.50;0.50;;;32.60;30.00;;;;;;5015656;28;20498;-70
2022/07/13 11:20:58;;;;;;;0.40;0.37;;;32.10;30.70;;;;;;5016018;28;20814;-70
2022/07/13 11:26:52;;;;;;;0.40;0.40;;;31.90;34.00;;;;;;5016171;28;20488;-72
2022/07/13 11:29:25;;;;;;;0.53;0.53;;;31.60;30.40;;;;;;5015661;28;20434;-71
2022/07/13 11:32:09;;;;;;;0.37;0.37;;;31.70;37.00;;;;;;5015751;28;20435;-72
2022/07/13 11:34:36;;;;;;;0.40;0.37;;;31.90;32.90;;;;;;5015843;28;20458;-72
2022/07/13 11:37:02;;;;;;;0.70;0.60;;;31.70;33.20;;;;;;5015818;28;20394;-71
2022/07/13 11:39:33;;;;;;;0.40;0.40;;;31.70;32.50;;;;;;5015652;28;20430;-72
2022/07/13 11:42:01;;;;;;;0.40;0.40;;;31.60;33.30;;;;;;5015964;28;20434;-73
2022/07/13 11:44:28;;;;;;;0.40;0.40;;;31.60;33.60;;;;;;5015810;28;20425;-72
2022/07/13 11:46:55;;;;;;;0.40;0.40;;;31.50;34.30;;;;;;5015505;28;20464;-72
2022/07/13 11:49:22;;;;;;;0.30;0.30;;;31.50;35.40;;;;;;5015612;28;20521;-72
2022/07/13 11:51:49;;;;;;;0.37;0.37;;;31.50;38.40;;;;;;5015647;28;20414;-72
2022/07/13 11:54:16;;;;;;;0.50;0.40;;;31.50;36.10;;;;;;5015448;28;20450;-72
2022/07/13 11:56:56;;;;;;;0.30;0.30;;;31.40;34.60;;;;;;5015327;28;20465;-72
2022/07/13 11:59:38;;;;;;;0.37;0.37;;;31.40;35.90;;;;;;5015361;28;20776;-72
2022/07/13 12:02:07;;;;;;;0.30;0.30;;;31.50;34.10;;;;;;5015527;28;20399;-72
2022/07/13 12:04:32;;;;;;;0.30;0.30;;;31.50;34.60;;;;;;5015387;28;20918;-73
2022/07/13 12:07:12;;;;;;;0.40;0.40;;;31.50;33.90;;;;;;5015290;28;20407;-72
2022/07/13 12:09:48;;;;;;;0.40;0.40;;;31.40;32.60;;;;;;5015055;28;20660;-72
2022/07/13 12:12:15;;;;;;;0.30;0.30;;;31.30;36.00;;;;;;5015320;28;20398;-72
2022/07/13 12:14:41;;;;;;;0.40;0.40;;;31.30;34.10;;;;;;5013656;28;20813;-73
2022/07/13 12:17:07;;;;;;;0.50;0.50;;;31.30;34.70;;;;;;5015556;28;20402;-72
2022/07/13 12:19:33;;;;;;;0.40;0.40;;;31.20;36.80;;;;;;5015141;28;20433;-72
2022/07/13 12:21:59;;;;;;;0.40;0.40;;;30.90;38.20;;;;;;5013982;28;20407;-72
2022/07/13 12:24:26;;;;;;;0.50;0.40;;;30.70;37.70;;;;;;5013758;28;20184;-72
2022/07/13 12:26:53;;;;;;;0.40;0.40;;;30.60;36.70;;;;;;5013843;28;20963;-73
2022/07/13 12:29:30;;;;;;;0.40;0.40;;;30.60;36.60;;;;;;5012976;28;20422;-73
2022/07/13 12:31:56;;;;;;;0.50;0.50;;;30.70;37.00;;;;;;5014461;28;20805;-73
2022/07/13 12:34:22;;;;;;;0.40;0.40;;;30.70;37.10;;;;;;5013587;28;21009;-72
2022/07/13 12:36:48;;;;;;;0.40;0.40;;;30.70;36.70;;;;;;5014998;28;20399;-72
2022/07/13 12:39:14;;;;;;;0.50;0.47;;;30.70;36.60;;;;;;5014908;28;20195;-72
2022/07/13 12:41:42;;;;;;;0.30;0.30;;;30.90;37.00;;;;;;5015161;28;20172;-73
2022/07/13 12:44:10;;;;;;;0.50;0.40;;;30.90;36.80;;;;;;5014964;28;20171;-73
2022/07/13 12:46:46;;;;;;;0.53;0.47;;;30.80;37.10;;;;;;5014869;28;20402;-73
2022/07/13 12:49:12;;;;;;;0.50;0.40;;;30.60;37.90;;;;;;5012832;28;20798;-72
2022/07/13 12:51:52;;;;;;;0.40;0.40;;;30.50;38.40;;;;;;5014207;28;20406;-72
2022/07/13 12:54:45;;;;;;;0.37;0.30;;;30.40;38.50;;;;;;5014504;28;20197;-72
2022/07/13 12:57:19;;;;;;;0.40;0.40;;;30.30;39.10;;;;;;5013468;28;20778;-74
2022/07/13 13:00:07;;;;;;;0.40;0.40;;;30.40;39.00;;;;;;5014190;28;20819;-73
2022/07/13 13:02:34;;;;;;;0.57;0.40;;;30.50;38.50;;;;;;5014865;28;20395;-73
2022/07/13 13:04:59;;;;;;;0.40;0.40;;;30.50;37.90;;;;;;5012572;28;20406;-73